Time;durP1;ratioP1;P1;durP2;ratioP2;P2;SDS_P1;SDS_P2;PMS_P1;PMS_P2;Temp;Humidity;BMP_temperature;BMP_pressure;BME280_temperature;BME280_humidity;BME280_pressure;Samples;Min_cycle;Max_cycle;Signal;HPM_P1;HPM_P2
2022/04/07 00:02:17;;;;;;;28.65;18.88;;;9.80;99.90;;;;;;6093991;23;20057;-82
2022/04/07 00:04:43;;;;;;;29.27;11.18;;;;;;;;;;6093732;23;20053;-82
2022/04/07 00:07:09;;;;;;;21.83;9.50;;;11.60;99.90;;;;;;6094820;23;20454;-83
2022/04/07 00:09:34;;;;;;;21.45;10.57;;;12.50;99.90;;;;;;6095077;23;20022;-81
2022/04/07 00:12:00;;;;;;;21.35;11.13;;;10.30;99.90;;;;;;6095296;23;20313;-82
2022/04/07 00:14:25;;;;;;;28.73;11.07;;;11.40;99.90;;;;;;6094794;23;20445;-82
2022/04/07 00:16:51;;;;;;;27.45;10.77;;;10.30;99.90;;;;;;6093965;23;20066;-83
2022/04/07 00:19:17;;;;;;;29.95;10.85;;;11.00;99.90;;;;;;6094244;23;20042;-83
2022/04/07 00:21:46;;;;;;;28.85;10.70;;;10.70;99.90;;;;;;6094033;23;20022;-83
2022/04/07 00:24:12;;;;;;;21.15;9.23;;;10.50;99.90;;;;;;6068241;23;20014;-84
2022/04/07 00:26:38;;;;;;;34.38;10.68;;;11.30;99.90;;;;;;6044890;23;20030;-82
2022/04/07 00:29:04;;;;;;;27.13;11.10;;;10.90;99.90;;;;;;6095131;23;20023;-82
2022/04/07 00:31:39;;;;;;;30.02;9.80;;;10.60;99.90;;;;;;6068521;23;20022;-82
2022/04/07 00:34:06;;;;;;;30.02;13.10;;;11.80;99.90;;;;;;6093833;23;20337;-83
2022/04/07 00:36:32;;;;;;;32.73;11.83;;;10.80;99.90;;;;;;6068094;23;20030;-82
2022/04/07 00:38:59;;;;;;;30.13;13.77;;;11.50;99.90;;;;;;6068735;23;20422;-83
2022/04/07 00:41:24;;;;;;;31.52;14.77;;;11.00;99.90;;;;;;6068250;23;20080;-82
2022/04/07 00:43:51;;;;;;;28.05;13.40;;;;;;;;;;6094232;23;20054;-82
2022/04/07 00:46:18;;;;;;;32.85;14.23;;;10.90;99.90;;;;;;6093563;23;20022;-83
2022/04/07 00:48:43;;;;;;;34.42;13.38;;;13.20;99.90;;;;;;6069353;23;20341;-83
2022/04/07 00:51:09;;;;;;;26.40;12.57;;;10.40;99.90;;;;;;6068368;23;20022;-82
2022/04/07 00:53:35;;;;;;;20.23;10.60;;;12.20;99.90;;;;;;6094032;23;20018;-82
2022/04/07 00:56:02;;;;;;;25.00;10.95;;;11.30;99.90;;;;;;6045548;23;20026;-81
2022/04/07 00:58:29;;;;;;;24.30;9.18;;;11.20;99.90;;;;;;6093837;23;20026;-82
2022/04/07 01:00:59;;;;;;;23.13;7.68;;;10.10;99.90;;;;;;6094631;23;20026;-81
2022/04/07 01:03:25;;;;;;;21.33;5.70;;;10.20;99.90;;;;;;6093108;23;20131;-83
2022/04/07 01:05:51;;;;;;;21.35;6.60;;;8.10;99.90;;;;;;6093357;23;20073;-82
2022/04/07 01:08:17;;;;;;;23.90;7.28;;;9.90;99.90;;;;;;6044222;23;20026;-82
2022/04/07 01:10:44;;;;;;;21.58;7.50;;;11.20;99.90;;;;;;6094302;23;20437;-83
2022/04/07 01:13:13;;;;;;;17.27;8.45;;;12.60;99.90;;;;;;6094463;23;20018;-82
2022/04/07 01:15:42;;;;;;;22.10;8.45;;;11.00;99.90;;;;;;6069436;23;20022;-82
2022/04/07 01:18:07;;;;;;;21.60;8.57;;;10.40;99.90;;;;;;6093690;23;20029;-82
2022/04/07 01:20:33;;;;;;;25.90;9.75;;;10.30;99.90;;;;;;6093490;23;20018;-81
2022/04/07 01:23:00;;;;;;;18.23;8.82;;;12.80;99.90;;;;;;6093209;23;20022;-82
2022/04/07 01:25:27;;;;;;;27.08;9.30;;;11.30;99.90;;;;;;6093777;23;20085;-81
2022/04/07 01:27:54;;;;;;;28.10;11.13;;;11.80;99.90;;;;;;6094451;23;20054;-81
2022/04/07 01:30:20;;;;;;;30.05;11.50;;;11.50;99.90;;;;;;6093729;23;20091;-82
2022/04/07 01:32:53;;;;;;;23.98;12.82;;;11.40;99.90;;;;;;6093441;23;20026;-81
2022/04/07 01:35:21;;;;;;;29.45;13.05;;;;;;;;;;6093264;23;20079;-82
2022/04/07 01:37:48;;;;;;;29.55;14.75;;;10.90;99.90;;;;;;6068988;23;20042;-81
2022/04/07 01:40:17;;;;;;;32.05;14.70;;;11.40;99.90;;;;;;6094486;23;20030;-82
2022/04/07 01:42:45;;;;;;;36.92;17.38;;;10.20;99.90;;;;;;6093976;23;20485;-81
2022/04/07 01:45:12;;;;;;;41.00;19.17;;;10.30;99.90;;;;;;6067958;23;20513;-81
2022/04/07 01:47:41;;;;;;;34.85;14.82;;;13.50;99.90;;;;;;6092707;23;20500;-81
2022/04/07 01:50:09;;;;;;;35.63;16.00;;;12.50;99.90;;;;;;6044325;23;20070;-80
2022/04/07 01:52:39;;;;;;;37.85;15.57;;;12.40;99.90;;;;;;6094266;23;20029;-81
2022/04/07 01:55:06;;;;;;;28.77;14.25;;;13.70;99.90;;;;;;6094225;23;20053;-81
2022/04/07 01:57:32;;;;;;;32.45;15.50;;;10.00;99.90;;;;;;6044053;23;20022;-82
2022/04/07 01:59:59;;;;;;;38.10;14.32;;;11.40;99.90;;;;;;6094202;23;20461;-82
2022/04/07 02:02:25;;;;;;;36.15;12.85;;;11.60;99.90;;;;;;6092737;23;20022;-81
2022/04/07 02:04:59;;;;;;;29.42;13.15;;;13.20;99.90;;;;;;6094462;23;20046;-80
2022/04/07 02:07:32;;;;;;;29.60;13.20;;;10.00;99.90;;;;;;6094078;23;20026;-82
2022/04/07 02:09:59;;;;;;;57.65;15.75;;;10.30;99.90;;;;;;6094556;23;20455;-81
2022/04/07 02:12:27;;;;;;;35.53;13.98;;;11.40;99.90;;;;;;6094999;23;20108;-82
2022/04/07 02:14:53;;;;;;;;;;;13.10;99.90;;;;;;6096314;23;20030;-82
2022/04/07 02:17:22;;;;;;;32.97;10.73;;;12.20;99.90;;;;;;6070096;23;19992;-82
2022/04/07 02:19:56;;;;;;;27.70;12.93;;;11.30;99.90;;;;;;6070938;23;20085;-82
2022/04/07 02:22:22;;;;;;;42.00;13.93;;;10.20;99.90;;;;;;6070616;23;20057;-82
2022/04/07 02:24:48;;;;;;;28.13;13.73;;;10.60;99.90;;;;;;6095873;23;20294;-82
2022/04/07 02:27:14;;;;;;;34.00;13.23;;;10.20;99.90;;;;;;6095543;23;20019;-82
2022/04/07 02:29:42;;;;;;;41.63;13.52;;;9.90;99.90;;;;;;6070198;23;20385;-82
2022/04/07 02:32:09;;;;;;;41.50;13.65;;;11.20;99.90;;;;;;6070185;23;20018;-83
2022/04/07 02:34:35;;;;;;;37.33;14.38;;;11.60;99.90;;;;;;6095926;23;20107;-82
2022/04/07 02:37:01;;;;;;;37.25;14.32;;;13.70;99.90;;;;;;6095526;23;20113;-82
2022/04/07 02:39:27;;;;;;;37.65;13.55;;;11.40;99.90;;;;;;6069461;23;20335;-82
2022/04/07 02:41:53;;;;;;;30.55;12.70;;;10.50;99.90;;;;;;6096003;23;20066;-82
2022/04/07 02:44:20;;;;;;;29.75;12.13;;;;;;;;;;6096078;23;20037;-82
2022/04/07 02:46:46;;;;;;;32.42;13.30;;;12.10;99.90;;;;;;6094687;23;20027;-82
2022/04/07 02:49:12;;;;;;;37.55;12.85;;;10.90;99.90;;;;;;6095145;23;20037;-82
2022/04/07 02:51:37;;;;;;;29.13;12.68;;;11.40;99.90;;;;;;6045125;23;20025;-82
2022/04/07 02:54:03;;;;;;;30.60;11.18;;;14.00;99.90;;;;;;6095320;23;20353;-82
2022/04/07 02:56:30;;;;;;;41.47;11.85;;;9.90;99.90;;;;;;6094883;23;20077;-81
2022/04/07 02:58:56;;;;;;;40.00;11.98;;;10.50;99.90;;;;;;6095987;23;20022;-81
2022/04/07 03:01:22;;;;;;;34.78;11.63;;;11.70;99.90;;;;;;6095182;23;20037;-82
2022/04/07 03:03:49;;;;;;;47.38;12.75;;;11.10;99.90;;;;;;6094729;23;20089;-81
2022/04/07 03:06:15;;;;;;;33.55;11.02;;;11.20;99.90;;;;;;6095026;23;20018;-82
2022/04/07 03:08:41;;;;;;;37.65;11.82;;;11.60;99.90;;;;;;6046079;23;20026;-82
2022/04/07 03:11:08;;;;;;;30.60;10.10;;;11.70;99.90;;;;;;6095728;23;20308;-83
2022/04/07 03:13:36;;;;;;;33.15;11.35;;;10.40;99.90;;;;;;6069550;23;20014;-82
2022/04/07 03:16:03;;;;;;;35.28;12.35;;;11.40;99.90;;;;;;6095150;23;20026;-82
2022/04/07 03:18:29;;;;;;;43.70;12.47;;;10.50;99.90;;;;;;6044923;23;20082;-82
2022/04/07 03:20:55;;;;;;;42.22;12.38;;;10.30;99.90;;;;;;6095119;23;20042;-81
2022/04/07 03:23:21;;;;;;;53.15;11.07;;;11.40;99.90;;;;;;6093642;23;20453;-83
2022/04/07 03:25:47;;;;;;;43.78;13.27;;;10.50;99.90;;;;;;6094541;23;20022;-82
2022/04/07 03:28:13;;;;;;;46.10;13.23;;;11.00;99.90;;;;;;6069193;23;20450;-83
2022/04/07 03:30:39;;;;;;;37.00;13.88;;;10.30;99.90;;;;;;6069643;23;20018;-82
2022/04/07 03:33:07;;;;;;;34.47;11.77;;;;;;;;;;6094412;23;20026;-83
2022/04/07 03:35:37;;;;;;;31.05;11.30;;;11.20;99.90;;;;;;6094653;23;20097;-83
2022/04/07 03:38:06;;;;;;;37.53;10.70;;;11.40;99.90;;;;;;6069583;23;20034;-82
2022/04/07 03:40:35;;;;;;;30.77;9.70;;;10.40;99.90;;;;;;6094753;23;20077;-82
2022/04/07 03:43:04;;;;;;;19.55;8.32;;;10.30;99.90;;;;;;6094292;23;20406;-82
2022/04/07 03:45:30;;;;;;;27.75;8.63;;;10.40;99.90;;;;;;6094554;23;20029;-84
2022/04/07 03:47:56;;;;;;;26.50;9.13;;;10.10;99.90;;;;;;6094312;23;20058;-82
2022/04/07 03:50:22;;;;;;;23.65;8.15;;;10.60;99.90;;;;;;6069109;23;20073;-82
2022/04/07 03:52:48;;;;;;;31.42;7.85;;;10.20;99.90;;;;;;6094350;23;20098;-82
2022/04/07 03:55:14;;;;;;;34.35;12.15;;;13.40;99.90;;;;;;6069755;23;20061;-82
2022/04/07 03:57:39;;;;;;;40.80;8.85;;;10.30;99.90;;;;;;6094383;23;20026;-82
2022/04/07 04:00:06;;;;;;;26.77;8.38;;;10.30;99.90;;;;;;6094697;23;20105;-82
2022/04/07 04:02:32;;;;;;;22.50;8.45;;;11.80;99.90;;;;;;6094065;23;20057;-84
2022/04/07 04:04:57;;;;;;;28.38;9.48;;;11.40;99.90;;;;;;6093698;23;20323;-82
2022/04/07 04:07:23;;;;;;;47.67;12.00;;;10.10;99.90;;;;;;6093889;23;20137;-81
2022/04/07 04:09:49;;;;;;;32.85;9.93;;;10.80;99.90;;;;;;6094374;23;20101;-82
2022/04/07 04:12:18;;;;;;;44.88;11.85;;;;;;;;;;6070194;23;20022;-82
2022/04/07 04:14:44;;;;;;;38.15;13.23;;;10.10;99.90;;;;;;6093614;23;20018;-82
2022/04/07 04:17:10;;;;;;;39.45;10.82;;;;;;;;;;6094184;23;20097;-82
2022/04/07 04:19:36;;;;;;;47.00;12.80;;;10.70;99.90;;;;;;6093087;23;20026;-83
2022/04/07 04:22:02;;;;;;;41.97;12.30;;;10.70;99.90;;;;;;6094141;23;20077;-82
2022/04/07 04:24:28;;;;;;;40.92;12.65;;;11.80;99.90;;;;;;6068385;23;20085;-82
2022/04/07 04:26:53;;;;;;;32.10;10.15;;;11.70;99.90;;;;;;6067419;23;20255;-83
2022/04/07 04:29:19;;;;;;;60.97;12.68;;;10.60;99.90;;;;;;6094128;23;20030;-82
2022/04/07 04:31:45;;;;;;;50.70;11.77;;;10.90;99.90;;;;;;6067047;23;20030;-83
2022/04/07 04:34:11;;;;;;;48.75;13.20;;;10.30;99.90;;;;;;6093805;23;20015;-83
2022/04/07 04:36:37;;;;;;;36.28;12.02;;;10.60;99.90;;;;;;6093395;23;20454;-83
2022/04/07 04:39:03;;;;;;;44.10;12.98;;;11.30;99.90;;;;;;6068868;23;20094;-83
2022/04/07 04:41:29;;;;;;;49.60;13.52;;;12.50;99.90;;;;;;6068964;23;20034;-82
2022/04/07 04:43:55;;;;;;;38.67;11.93;;;;;;;;;;6093761;23;20434;-83
2022/04/07 04:46:21;;;;;;;49.90;12.63;;;11.30;99.90;;;;;;6093505;23;20030;-82
2022/04/07 04:48:47;;;;;;;55.00;13.07;;;10.20;99.90;;;;;;6044104;23;20010;-83
2022/04/07 04:51:13;;;;;;;55.85;13.80;;;9.30;99.90;;;;;;6092924;23;20037;-83
2022/04/07 04:53:39;;;;;;;38.58;11.55;;;10.60;99.90;;;;;;6093650;23;20014;-82
2022/04/07 04:56:05;;;;;;;46.33;9.40;;;11.00;99.90;;;;;;6068220;23;20029;-81
2022/04/07 04:58:31;;;;;;;33.75;6.20;;;11.60;99.90;;;;;;6068618;23;20022;-84
2022/04/07 05:00:57;;;;;;;33.75;8.55;;;10.70;99.90;;;;;;6067873;23;20951;-83
2022/04/07 05:03:23;;;;;;;33.95;10.23;;;11.40;99.90;;;;;;6093494;23;20014;-82
2022/04/07 05:05:49;;;;;;;39.88;12.07;;;10.50;99.90;;;;;;6092896;23;20279;-82
2022/04/07 05:08:14;;;;;;;46.40;13.77;;;11.40;99.90;;;;;;6068401;23;20026;-82
2022/04/07 05:10:40;;;;;;;77.47;15.07;;;10.70;99.90;;;;;;6068393;23;20022;-82
2022/04/07 05:13:06;;;;;;;82.78;16.35;;;11.50;99.90;;;;;;6093312;23;20018;-83
2022/04/07 05:15:32;;;;;;;48.10;9.73;;;11.20;99.90;;;;;;6067940;23;20022;-82
2022/04/07 05:17:58;;;;;;;41.95;9.18;;;11.90;99.90;;;;;;6092032;23;20089;-81
2022/04/07 05:20:24;;;;;;;36.13;12.23;;;14.60;99.90;;;;;;6044040;23;20073;-81
2022/04/07 05:22:49;;;;;;;57.28;10.77;;;12.10;99.90;;;;;;6093595;23;20065;-82
2022/04/07 05:25:15;;;;;;;47.17;10.07;;;12.50;99.90;;;;;;6092944;23;20105;-81
2022/04/07 05:27:43;;;;;;;43.63;11.10;;;12.90;99.90;;;;;;6067891;23;20022;-83
2022/04/07 05:30:15;;;;;;;53.08;12.30;;;11.80;99.90;;;;;;6094224;23;20018;-83
2022/04/07 05:32:46;;;;;;;54.08;13.00;;;11.70;99.90;;;;;;6093472;23;20058;-83
2022/04/07 05:35:12;;;;;;;56.17;13.45;;;12.80;99.90;;;;;;6067968;23;20026;-82
2022/04/07 05:37:38;;;;;;;49.22;12.45;;;13.20;99.90;;;;;;6093664;23;20026;-82
2022/04/07 05:40:05;;;;;;;62.55;11.00;;;12.00;99.90;;;;;;6094026;23;20086;-81
2022/04/07 05:42:31;;;;;;;16.85;3.53;;;11.70;99.90;;;;;;6094415;23;20023;-78
2022/04/07 05:44:57;;;;;;;27.58;4.13;;;;;;;;;;6067370;23;20112;-80
2022/04/07 05:47:26;;;;;;;14.32;3.17;;;10.10;99.90;;;;;;6095598;23;20045;-81
2022/04/07 05:49:54;;;;;;;17.73;2.80;;;10.20;99.90;;;;;;6069660;23;20453;-81
2022/04/07 05:52:20;;;;;;;13.90;3.28;;;;;;;;;;6096505;23;20044;-82
2022/04/07 05:54:46;;;;;;;17.00;3.53;;;8.50;99.90;;;;;;6095374;23;20084;-83
2022/04/07 05:57:12;;;;;;;16.52;3.55;;;7.40;99.90;;;;;;6096144;23;20097;-82
2022/04/07 05:59:37;;;;;;;16.25;3.45;;;9.70;99.90;;;;;;6070529;23;20456;-83
2022/04/07 06:02:04;;;;;;;23.50;3.33;;;9.30;99.90;;;;;;6095291;23;20030;-82
2022/04/07 06:04:30;;;;;;;28.77;3.80;;;7.60;99.90;;;;;;6070784;23;20026;-82
2022/04/07 06:06:55;;;;;;;23.52;4.28;;;8.30;99.90;;;;;;6094075;23;20085;-81
2022/04/07 06:09:21;;;;;;;27.60;3.67;;;8.80;99.90;;;;;;6096032;23;20023;-82
2022/04/07 06:11:47;;;;;;;30.42;3.63;;;8.20;99.90;;;;;;6095083;23;20338;-82
2022/04/07 06:14:13;;;;;;;30.58;3.63;;;8.60;99.90;;;;;;6095998;23;20046;-82
2022/04/07 06:16:38;;;;;;;24.92;4.45;;;10.20;99.90;;;;;;6095368;23;20445;-81
2022/04/07 06:19:04;;;;;;;17.83;4.55;;;9.30;99.90;;;;;;6095618;23;20319;-81
2022/04/07 06:21:30;;;;;;;36.15;4.90;;;9.00;99.90;;;;;;6095011;23;20350;-81
2022/04/07 06:23:57;;;;;;;56.40;5.07;;;8.90;99.90;;;;;;6095267;23;20089;-81
2022/04/07 06:26:23;;;;;;;35.30;4.77;;;10.90;99.90;;;;;;6069755;23;20025;-81
2022/04/07 06:28:49;;;;;;;23.33;2.80;;;;;;;;;;6095287;23;20445;-81
2022/04/07 06:31:15;;;;;;;28.45;4.18;;;8.90;99.90;;;;;;6069588;23;20022;-81
2022/04/07 06:33:41;;;;;;;34.13;3.58;;;9.20;99.90;;;;;;6044155;23;20034;-81
2022/04/07 06:36:07;;;;;;;11.40;3.33;;;9.60;99.90;;;;;;6094590;23;20018;-80
2022/04/07 06:38:33;;;;;;;15.52;3.60;;;11.00;99.90;;;;;;6095326;23;20018;-81
2022/04/07 06:40:59;;;;;;;13.40;3.03;;;9.90;99.90;;;;;;6069073;23;20453;-82
2022/04/07 06:43:25;;;;;;;13.38;3.33;;;9.40;99.90;;;;;;6068780;23;20335;-81
2022/04/07 06:45:51;;;;;;;11.57;2.53;;;8.80;99.90;;;;;;6069134;23;20077;-82
2022/04/07 06:48:20;;;;;;;12.77;2.67;;;8.80;99.90;;;;;;6094428;23;20026;-82
2022/04/07 06:50:46;;;;;;;12.40;2.67;;;;;;;;;;6092253;23;20029;-84
2022/04/07 06:53:12;;;;;;;12.63;2.72;;;9.30;99.90;;;;;;6045512;23;20434;-83
2022/04/07 06:55:43;;;;;;;7.65;2.28;;;11.50;99.90;;;;;;6094932;23;20018;-82
2022/04/07 06:58:11;;;;;;;12.00;2.45;;;;;;;;;;6094171;23;20018;-82
2022/04/07 07:00:45;;;;;;;5.53;1.70;;;9.30;99.90;;;;;;6045845;23;20058;-83
2022/04/07 07:03:15;;;;;;;8.43;2.00;;;9.50;99.90;;;;;;6068523;23;20531;-83
2022/04/07 07:05:42;;;;;;;5.95;2.72;;;8.90;99.90;;;;;;6095052;23;20392;-84
2022/04/07 07:08:17;;;;;;;14.70;4.18;;;10.40;99.90;;;;;;6094749;23;20084;-82
2022/04/07 07:10:45;;;;;;;15.25;9.82;;;10.90;99.90;;;;;;6095211;23;20081;-81
2022/04/07 07:13:12;;;;;;;10.13;2.22;;;;;;;;;;6094447;23;20019;-83
2022/04/07 07:15:39;;;;;;;9.67;2.07;;;11.10;99.90;;;;;;6095043;23;20022;-83
2022/04/07 07:18:05;;;;;;;10.93;2.30;;;9.60;99.90;;;;;;6044622;23;20258;-83
2022/04/07 07:20:31;;;;;;;6.80;1.95;;;9.50;99.90;;;;;;6044954;23;20089;-83
2022/04/07 07:22:57;;;;;;;10.68;2.25;;;10.10;99.90;;;;;;6068886;23;20022;-84
2022/04/07 07:25:23;;;;;;;8.02;2.45;;;10.80;99.90;;;;;;6095219;23;20093;-83
2022/04/07 07:27:49;;;;;;;11.13;2.17;;;9.80;99.90;;;;;;6094238;23;20057;-84
2022/04/07 07:30:16;;;;;;;8.30;2.22;;;9.40;99.90;;;;;;6068939;23;20026;-82
2022/04/07 07:32:46;;;;;;;11.38;2.15;;;8.70;99.90;;;;;;6093934;23;20058;-83
2022/04/07 07:35:13;;;;;;;7.30;2.53;;;9.80;99.90;;;;;;6068819;23;20021;-83
2022/04/07 07:37:51;;;;;;;7.85;1.83;;;12.00;99.90;;;;;;6069614;23;20457;-84
2022/04/07 07:40:18;;;;;;;11.75;1.95;;;12.10;99.90;;;;;;6095780;23;20080;-85
2022/04/07 07:42:44;;;;;;;10.05;2.35;;;8.50;99.90;;;;;;6094509;23;20017;-84
2022/04/07 07:45:10;;;;;;;12.27;2.63;;;7.90;99.90;;;;;;6094526;23;20019;-84
2022/04/07 07:47:39;;;;;;;15.18;4.45;;;11.90;99.90;;;;;;6094482;23;20329;-84
2022/04/07 07:50:06;;;;;;;8.48;1.95;;;8.90;99.90;;;;;;6068335;23;20193;-84
2022/04/07 07:52:32;;;;;;;11.82;2.63;;;11.80;99.90;;;;;;6094956;23;20329;-84
2022/04/07 07:54:59;;;;;;;8.80;2.15;;;;;;;;;;6092793;23;20018;-85
2022/04/07 07:57:25;;;;;;;9.93;2.30;;;9.80;99.90;;;;;;6069464;23;20053;-84
2022/04/07 07:59:51;;;;;;;9.95;2.50;;;;;;;;;;6094509;23;20073;-85
2022/04/07 08:02:18;;;;;;;8.68;2.40;;;11.80;99.90;;;;;;6094502;23;20018;-84
2022/04/07 08:04:45;;;;;;;11.27;2.53;;;13.70;99.90;;;;;;6094883;23;20014;-83
2022/04/07 08:07:11;;;;;;;8.48;2.17;;;12.30;99.90;;;;;;6068727;23;20118;-84
2022/04/07 08:09:36;;;;;;;12.95;2.30;;;9.90;99.90;;;;;;6045298;23;20455;-85
2022/04/07 08:12:03;;;;;;;14.30;2.78;;;9.30;99.90;;;;;;6044869;23;20171;-85
2022/04/07 08:14:31;;;;;;;9.43;2.20;;;9.50;99.90;;;;;;6069468;23;20021;-84
2022/04/07 08:16:57;;;;;;;11.52;2.28;;;10.10;99.90;;;;;;6068663;23;20014;-85
2022/04/07 08:19:23;;;;;;;7.90;2.05;;;9.40;99.90;;;;;;6094514;23;20385;-83
2022/04/07 08:21:49;;;;;;;7.85;2.35;;;13.50;99.90;;;;;;6068073;23;20046;-84
2022/04/07 08:24:22;;;;;;;7.05;2.33;;;9.50;99.90;;;;;;6068880;23;20022;-84
2022/04/07 08:26:51;;;;;;;10.48;2.67;;;9.50;99.90;;;;;;6068401;23;20014;-83
2022/04/07 08:29:16;;;;;;;12.18;2.40;;;11.80;99.90;;;;;;6092949;23;20011;-84
2022/04/07 08:31:43;;;;;;;10.68;2.97;;;7.10;99.90;;;;;;6068825;23;20080;-84
2022/04/07 08:34:09;;;;;;;12.32;2.63;;;10.00;99.90;;;;;;6068160;23;20085;-84
2022/04/07 08:36:34;;;;;;;10.38;3.05;;;11.40;99.90;;;;;;6094380;23;20026;-86
2022/04/07 08:39:00;;;;;;;13.77;4.40;;;12.00;99.90;;;;;;6044315;23;20014;-83
2022/04/07 08:41:31;;;;;;;18.13;3.38;;;11.60;99.90;;;;;;6044339;23;20387;-83
2022/04/07 08:43:58;;;;;;;9.93;3.15;;;12.10;99.90;;;;;;6069625;23;20025;-83
2022/04/07 08:46:26;;;;;;;18.27;4.35;;;14.50;99.90;;;;;;6094101;23;20022;-83
2022/04/07 08:48:55;;;;;;;11.45;4.45;;;12.60;99.90;;;;;;6094977;23;20038;-84
2022/04/07 08:51:22;;;;;;;12.98;5.97;;;;;;;;;;6093917;23;20025;-83
2022/04/07 08:53:48;;;;;;;14.93;4.07;;;15.00;99.90;;;;;;6094359;23;20029;-83
2022/04/07 08:56:17;;;;;;;17.33;5.13;;;13.80;99.90;;;;;;6094192;23;20093;-84
2022/04/07 08:58:43;;;;;;;15.48;4.07;;;14.90;99.90;;;;;;6093350;23;20450;-84
2022/04/07 09:01:14;;;;;;;16.65;13.43;;;16.40;99.90;;;;;;6093619;23;20074;-83
2022/04/07 09:03:40;;;;;;;15.57;11.98;;;15.00;99.90;;;;;;6045045;23;20334;-84
2022/04/07 09:06:05;;;;;;;9.27;2.00;;;14.90;99.90;;;;;;6068226;23;20030;-84
2022/04/07 09:08:39;;;;;;;8.52;2.40;;;14.00;99.90;;;;;;6094587;23;20109;-83
2022/04/07 09:11:08;;;;;;;8.20;2.05;;;14.10;99.90;;;;;;6093986;23;20026;-82
2022/04/07 09:13:35;;;;;;;8.00;2.03;;;10.70;99.90;;;;;;6068896;23;20442;-83
2022/04/07 09:16:07;;;;;;;16.27;2.42;;;13.20;99.90;;;;;;6094083;23;20081;-83
2022/04/07 09:18:37;;;;;;;18.75;2.95;;;14.30;99.90;;;;;;6094711;23;20053;-83
2022/04/07 09:21:04;;;;;;;15.43;2.97;;;13.50;99.90;;;;;;6068081;23;20351;-83
2022/04/07 09:23:38;;;;;;;9.93;2.53;;;12.80;99.90;;;;;;6093274;23;20097;-85
2022/04/07 09:26:04;;;;;;;15.32;3.65;;;13.10;99.90;;;;;;6093798;23;20122;-84
2022/04/07 09:28:32;;;;;;;9.10;2.53;;;13.70;99.90;;;;;;6044938;23;20063;-83
2022/04/07 09:30:59;;;;;;;15.00;2.65;;;14.50;99.90;;;;;;6094680;23;20022;-83
2022/04/07 09:33:26;;;;;;;13.68;2.47;;;13.20;99.90;;;;;;6093794;23;20125;-84
2022/04/07 09:36:05;;;;;;;9.13;2.30;;;16.70;99.90;;;;;;6093943;23;20098;-82
2022/04/07 09:38:38;;;;;;;9.38;2.83;;;14.90;99.90;;;;;;6045013;23;20022;-84
2022/04/07 09:41:08;;;;;;;15.48;3.10;;;14.30;99.90;;;;;;6094170;23;20014;-85
2022/04/07 09:43:50;;;;;;;20.98;3.40;;;13.20;99.90;;;;;;6070163;23;20283;-85
2022/04/07 09:46:21;;;;;;;12.27;2.72;;;14.00;99.90;;;;;;6093537;23;20064;-82
2022/04/07 09:49:04;;;;;;;10.98;3.50;;;13.20;99.90;;;;;;6094389;23;20073;-83
2022/04/07 09:51:45;;;;;;;12.18;3.10;;;14.50;99.90;;;;;;6092168;23;20018;-83
2022/04/07 09:54:12;;;;;;;16.85;3.53;;;15.00;99.90;;;;;;6094139;23;20078;-83
2022/04/07 09:56:38;;;;;;;18.77;3.17;;;12.90;99.90;;;;;;6094267;23;20098;-83
2022/04/07 09:59:07;;;;;;;21.65;3.53;;;12.80;99.90;;;;;;6044492;23;20026;-84
2022/04/07 10:01:40;;;;;;;15.63;2.78;;;12.90;99.90;;;;;;6093783;23;20441;-84
2022/04/07 10:04:07;;;;;;;13.43;6.43;;;12.80;99.90;;;;;;6094076;23;20023;-82
2022/04/07 10:06:33;;;;;;;21.13;3.60;;;12.30;99.90;;;;;;6093394;23;20402;-82
2022/04/07 10:09:04;;;;;;;24.83;3.78;;;12.70;99.90;;;;;;6094546;23;20390;-82
2022/04/07 10:11:31;;;;;;;15.88;3.78;;;12.30;99.90;;;;;;6068385;23;20018;-83
2022/04/07 10:13:57;;;;;;;18.08;3.33;;;10.20;99.90;;;;;;6094307;23;20089;-84
2022/04/07 10:16:26;;;;;;;25.52;4.95;;;11.60;99.90;;;;;;6044171;23;20085;-82
2022/04/07 10:19:11;;;;;;;15.30;5.50;;;14.10;99.90;;;;;;6021425;23;20079;-82
2022/04/07 10:21:57;;;;;;;20.60;3.92;;;13.80;99.90;;;;;;6090397;23;20022;-84
2022/04/07 10:24:48;;;;;;;19.70;5.72;;;14.60;99.90;;;;;;6070381;23;20105;-84
2022/04/07 10:27:18;;;;;;;29.85;3.65;;;16.10;99.90;;;;;;6093088;23;20307;-83
2022/04/07 10:30:11;;;;;;;17.60;4.50;;;14.60;99.90;;;;;;6093805;23;20037;-83
2022/04/07 10:32:54;;;;;;;24.42;3.85;;;14.30;99.90;;;;;;6063634;23;20018;-82
2022/04/07 10:35:34;;;;;;;25.42;4.68;;;12.10;99.90;;;;;;6068926;23;20019;-80
2022/04/07 10:38:06;;;;;;;16.52;5.75;;;12.10;99.90;;;;;;6069853;23;20030;-82
2022/04/07 10:40:50;;;;;;;22.90;4.38;;;10.50;99.90;;;;;;6095766;23;20069;-83
2022/04/07 10:43:27;;;;;;;22.55;4.13;;;12.70;99.90;;;;;;6095333;23;20102;-84
2022/04/07 10:46:05;;;;;;;25.50;4.35;;;12.80;99.90;;;;;;6045541;23;20029;-81
2022/04/07 10:48:55;;;;;;;22.23;4.97;;;11.30;99.90;;;;;;6095269;23;20025;-83
2022/04/07 10:51:43;;;;;;;15.68;3.15;;;11.40;99.90;;;;;;6094288;23;20030;-83
2022/04/07 10:54:09;;;;;;;19.65;4.70;;;;;;;;;;6094987;23;20041;-83
2022/04/07 10:56:35;;;;;;;23.00;4.38;;;12.50;99.90;;;;;;6094582;23;20481;-84
2022/04/07 10:59:18;;;;;;;28.05;3.85;;;13.10;99.90;;;;;;6095655;23;20025;-83
2022/04/07 11:01:44;;;;;;;17.90;4.03;;;13.60;99.90;;;;;;6069335;23;20054;-83
2022/04/07 11:04:22;;;;;;;19.80;3.97;;;13.30;99.90;;;;;;6095147;23;20058;-82
2022/04/07 11:07:14;;;;;;;20.02;3.17;;;12.20;99.90;;;;;;6060890;23;20422;-83
2022/04/07 11:09:55;;;;;;;18.65;3.42;;;10.30;99.90;;;;;;6066279;23;20062;-81
2022/04/07 11:12:42;;;;;;;25.92;4.05;;;15.70;99.90;;;;;;6065998;23;20022;-83
2022/04/07 11:15:42;;;;;;;20.55;3.95;;;11.50;99.90;;;;;;6064611;23;20028;-82
2022/04/07 11:18:50;;;;;;;24.15;3.50;;;10.40;99.90;;;;;;6063590;23;20368;-81
2022/04/07 11:21:16;;;;;;;32.95;5.00;;;11.10;99.90;;;;;;6087438;23;20419;-82
2022/04/07 11:23:52;;;;;;;29.13;7.90;;;10.60;99.90;;;;;;6066636;23;20320;-82
2022/04/07 11:26:26;;;;;;;30.05;5.75;;;12.30;99.90;;;;;;6065327;23;20023;-82
2022/04/07 11:29:10;;;;;;;23.88;4.25;;;14.80;99.90;;;;;;6066125;23;20023;-83
2022/04/07 11:31:51;;;;;;;22.08;5.95;;;11.90;99.90;;;;;;6064615;23;20027;-83
2022/04/07 11:34:39;;;;;;;26.35;4.95;;;13.30;99.90;;;;;;6063492;23;20061;-82
2022/04/07 11:37:08;;;;;;;34.00;7.78;;;14.20;99.90;;;;;;6063917;23;20046;-83
2022/04/07 11:39:38;;;;;;;25.40;6.63;;;13.20;99.90;;;;;;6064492;23;20462;-81
2022/04/07 11:42:04;;;;;;;20.80;4.25;;;13.50;99.90;;;;;;6064649;23;20033;-82
2022/04/07 11:44:30;;;;;;;21.10;5.03;;;13.00;99.90;;;;;;6065128;23;20019;-83
2022/04/07 11:47:00;;;;;;;35.45;5.20;;;13.90;99.90;;;;;;6063338;23;20093;-82
2022/04/07 11:49:27;;;;;;;33.83;5.55;;;13.10;99.90;;;;;;6065639;23;20030;-81
2022/04/07 11:51:53;;;;;;;37.60;7.80;;;14.30;99.90;;;;;;6065513;23;20037;-81
2022/04/07 11:54:20;;;;;;;25.35;10.80;;;13.90;99.90;;;;;;6039861;23;20093;-81
2022/04/07 11:56:47;;;;;;;23.95;4.43;;;13.40;99.90;;;;;;6066242;23;20015;-83
2022/04/07 11:59:13;;;;;;;14.18;5.03;;;15.00;99.90;;;;;;6065670;23;20489;-83
2022/04/07 12:01:40;;;;;;;22.83;5.25;;;11.40;99.90;;;;;;6039871;23;20058;-83
2022/04/07 12:04:09;;;;;;;31.27;7.50;;;11.80;99.90;;;;;;6066382;23;20026;-81
2022/04/07 12:06:37;;;;;;;25.60;4.63;;;13.90;99.90;;;;;;6065788;23;20019;-81
2022/04/07 12:09:04;;;;;;;21.70;8.88;;;13.70;99.90;;;;;;6069026;23;20022;-82
2022/04/07 12:11:32;;;;;;;29.17;4.22;;;13.70;99.90;;;;;;6068642;23;20080;-83
2022/04/07 12:13:58;;;;;;;;;;;14.20;99.90;;;;;;6095343;23;20022;-81
2022/04/07 12:16:28;;;;;;;30.02;5.68;;;13.90;99.90;;;;;;6093492;23;20340;-82
2022/04/07 12:19:00;;;;;;;26.67;4.68;;;11.10;99.90;;;;;;6068642;23;20027;-84
2022/04/07 12:21:29;;;;;;;31.52;6.65;;;13.80;99.90;;;;;;6068478;23;20154;-82
2022/04/07 12:24:13;;;;;;;34.95;5.82;;;11.40;99.90;;;;;;6094938;23;20191;-81
2022/04/07 12:26:44;;;;;;;17.73;5.07;;;11.70;99.90;;;;;;6093031;23;20022;-82
2022/04/07 12:29:14;;;;;;;25.77;8.93;;;15.90;99.90;;;;;;6044553;23;20025;-82
2022/04/07 12:31:39;;;;;;;27.77;4.57;;;13.70;99.90;;;;;;6091439;23;20450;-82
2022/04/07 12:34:08;;;;;;;23.08;4.28;;;12.00;99.90;;;;;;6091427;23;20093;-82
2022/04/07 12:36:35;;;;;;;24.10;4.93;;;11.80;99.90;;;;;;6093087;23;20018;-82
2022/04/07 12:39:08;;;;;;;21.42;5.97;;;12.20;99.90;;;;;;6094144;23;20450;-82
2022/04/07 12:41:40;;;;;;;19.85;9.05;;;13.30;99.90;;;;;;6092288;23;20442;-83
2022/04/07 12:44:08;;;;;;;15.75;3.42;;;15.50;99.90;;;;;;6092954;23;20026;-81
2022/04/07 12:46:47;;;;;;;10.68;2.38;;;13.20;99.90;;;;;;6093231;23;20089;-82
2022/04/07 12:49:27;;;;;;;9.68;2.42;;;12.80;99.90;;;;;;6068112;23;20045;-83
2022/04/07 12:52:39;;;;;;;13.40;5.45;;;12.60;99.90;;;;;;6068369;23;20026;-83